createdAt,value
2019-04-06T02:03:49.284Z,25.40
2019-04-06T03:13:07.327Z,25.77
2019-04-06T03:16:00.678Z,23.83
2019-04-06T03:18:29.766Z,22.97
2019-04-06T03:43:55.499Z,20.00
2019-04-06T03:46:41.348Z,24.30
2019-04-06T03:54:25.211Z,19.90
2019-04-06T04:03:29.927Z,21.10
2019-04-06T04:18:14.618Z,25.10
2019-04-06T04:23:59.497Z,24.83
2019-04-06T04:33:21.986Z,22.30
2019-04-06T05:20:06.211Z,18.33
2019-04-06T05:29:20.849Z,25.30
2019-04-06T05:31:59.827Z,25.07
2019-04-06T06:09:41.712Z,18.77
2019-04-06T06:12:15.157Z,21.13
2019-04-06T06:14:44.730Z,16.93
2019-04-06T06:17:41.034Z,17.07
2019-04-06T06:26:21.444Z,17.13
2019-04-06T06:28:56.342Z,16.97
2019-04-06T06:31:29.613Z,17.07
2019-04-06T06:34:04.610Z,13.00
2019-04-06T06:42:20.002Z,12.47
2019-04-06T06:50:12.476Z,12.13
2019-04-06T06:52:44.538Z,14.57
2019-04-06T06:55:18.876Z,14.13
2019-04-06T06:57:54.632Z,14.93
2019-04-06T07:00:27.017Z,12.30
2019-04-06T07:03:01.094Z,12.80
2019-04-06T07:08:22.776Z,11.83
2019-04-06T07:10:52.284Z,12.93
2019-04-06T07:13:23.022Z,11.40
2019-04-06T07:15:53.363Z,12.20
2019-04-06T07:18:22.707Z,12.30
2019-04-06T07:20:58.631Z,11.50
2019-04-06T07:23:33.430Z,12.87
2019-04-06T07:26:12.688Z,15.03
2019-04-06T07:28:43.687Z,12.10
2019-04-06T07:40:10.514Z,12.53
2019-04-06T07:42:50.108Z,12.13
2019-04-06T07:45:31.851Z,11.13
2019-04-06T08:25:59.835Z,10.10
2019-04-06T08:28:30.454Z,9.33
2019-04-06T08:31:00.519Z,11.40
2019-04-06T08:33:49.996Z,10.60
2019-04-06T08:36:20.121Z,12.50
2019-04-06T08:38:57.049Z,10.53
2019-04-06T08:41:29.942Z,9.73
2019-04-06T08:44:02.754Z,11.83
2019-04-06T08:46:33.231Z,9.13
2019-04-06T08:49:02.994Z,10.37
2019-04-06T08:51:39.771Z,9.10
2019-04-06T08:54:12.006Z,9.80
2019-04-06T08:56:54.003Z,10.97
2019-04-06T08:59:33.094Z,8.30
2019-04-06T09:02:04.403Z,10.73
2019-04-06T09:16:22.355Z,9.50
2019-04-06T09:18:51.548Z,11.07
2019-04-06T09:21:22.437Z,9.60
2019-04-06T09:23:51.867Z,8.87
2019-04-06T09:26:21.199Z,10.17
2019-04-06T09:28:51.681Z,7.90
2019-04-06T09:31:22.586Z,10.03
2019-04-06T09:33:51.576Z,7.53
2019-04-06T09:36:20.550Z,7.33
2019-04-06T09:38:50.306Z,7.67
2019-04-06T09:41:29.985Z,7.83
2019-04-06T09:47:03.769Z,7.80
2019-04-06T09:49:37.300Z,6.53
